KDED/DED METAR and TAF weather

Enter ICAO airport designator
Station Type Date Time Source
KDED METAR 2019/04/19 22:15 UTC NOAA

KDED 192215Z AUTO 19013KT 10SM BKN010 BKN013 OVC080 21/19 A2973 RMK AO2


Station Type Date Time Source
KDED Decoded METAR 2019/04/19 22:15 UTC NOAA

Station name not available
Apr 19, 2019 - 06:15 PM EDT / 2019.04.19 2215 UTC
Wind: from the S (190 degrees) at 15 MPH (13 KT):0
Visibility: 10 mile(s):0
Sky conditions: overcast
Temperature: 69 F (21 C)
Dew Point: 66 F (19 C)
Relative Humidity: 88%
Pressure (altimeter): 29.73 in. Hg (1006 hPa)
ob: KDED 192215Z AUTO 19013KT 10SM BKN010 BKN013 OVC080 21/19 A2973 RMK AO2
cycle: 22

Station Type Date Time Source
KDED TAF UTC NOAA

Error!

Example: see airport list